Time;durP1;ratioP1;P1;durP2;ratioP2;P2;SDS_P1;SDS_P2;PMS_P1;PMS_P2;Temp;Humidity;BMP_temperature;BMP_pressure;BME280_temperature;BME280_humidity;BME280_pressure;Samples;Min_cycle;Max_cycle;Signal;HPM_P1;HPM_P2
2023/05/18 00:01:07;;;;;;;7.93;5.90;;;;;;;;;;5084333;28;20204;-69
2023/05/18 00:03:34;;;;;;;9.02;5.43;;;;;;;;;;5084339;28;20200;-69
2023/05/18 00:06:03;;;;;;;6.15;5.18;;;;;;;;;;5084294;28;20231;-69
2023/05/18 00:08:29;;;;;;;7.03;5.75;;;;;;;;;;5083939;28;20246;-69
2023/05/18 00:10:55;;;;;;;6.25;5.13;;;;;;;;;;5083577;28;20197;-69
2023/05/18 00:13:22;;;;;;;9.20;5.60;;;;;;;;;;5083989;28;20504;-69
2023/05/18 00:15:48;;;;;;;12.15;5.95;;;;;;;;;;5084219;28;20197;-69
2023/05/18 00:18:15;;;;;;;9.70;5.53;;;;;;;;;;5084425;28;20204;-69
2023/05/18 00:20:42;;;;;;;6.65;5.78;;;;;;;;;;5083854;28;20250;-69
2023/05/18 00:23:09;;;;;;;7.28;5.80;;;;;;;;;;5084058;28;20207;-69
2023/05/18 00:25:35;;;;;;;7.00;5.13;;;;;;;;;;5083833;28;20204;-69
2023/05/18 00:28:01;;;;;;;10.32;6.50;;;;;;;;;;5083865;28;20224;-69
2023/05/18 00:30:28;;;;;;;8.15;5.80;;;;;;;;;;5083893;28;20201;-69
2023/05/18 00:32:54;;;;;;;6.40;5.55;;;;;;;;;;5084201;28;20197;-69
2023/05/18 00:35:22;;;;;;;9.13;5.82;;;;;;;;;;5083707;28;20201;-69
2023/05/18 00:37:48;;;;;;;8.38;5.63;;;;;;;;;;5083800;28;20192;-69
2023/05/18 00:40:14;;;;;;;7.18;5.30;;;;;;;;;;5083700;28;20284;-69
2023/05/18 00:42:40;;;;;;;6.07;5.20;;;;;;;;;;5083522;28;20197;-69
2023/05/18 00:45:07;;;;;;;6.85;4.85;;;;;;;;;;5083473;28;20208;-69
2023/05/18 00:47:34;;;;;;;5.57;4.80;;;;;;;;;;5083247;28;20253;-69
2023/05/18 00:50:01;;;;;;;5.13;4.35;;;;;;;;;;5083164;28;20196;-69
2023/05/18 00:52:29;;;;;;;7.57;4.90;;;;;;;;;;5083328;28;20200;-69
2023/05/18 00:54:57;;;;;;;5.20;4.40;;;;;;;;;;5083435;28;20371;-69
2023/05/18 00:57:23;;;;;;;5.07;4.57;;;;;;;;;;5083298;28;20230;-69
2023/05/18 00:59:50;;;;;;;7.88;4.65;;;;;;;;;;5083165;28;20196;-69
2023/05/18 01:02:16;;;;;;;10.00;4.50;;;;;;;;;;5083009;28;20196;-69
2023/05/18 01:04:42;;;;;;;5.50;4.35;;;;;;;;;;5082605;28;20547;-69
2023/05/18 01:07:09;;;;;;;4.45;4.00;;;;;;;;;;5082879;28;20410;-69
2023/05/18 01:09:37;;;;;;;5.90;5.10;;;;;;;;;;5082998;28;20197;-69
2023/05/18 01:12:07;;;;;;;5.55;4.28;;;;;;;;;;5082789;28;20203;-70
2023/05/18 01:14:37;;;;;;;4.97;4.57;;;;;;;;;;5082914;28;20208;-70
2023/05/18 01:17:06;;;;;;;5.45;4.38;;;;;;;;;;5083006;28;20203;-69
2023/05/18 01:19:43;;;;;;;6.97;4.93;;;;;;;;;;5082815;28;20215;-70
2023/05/18 01:22:20;;;;;;;4.47;4.07;;;;;;;;;;5081728;28;20393;-70
2023/05/18 01:24:52;;;;;;;5.72;4.60;;;;;;;;;;5082508;28;20241;-69
2023/05/18 01:27:23;;;;;;;7.07;4.95;;;;;;;;;;5082680;28;20536;-70
2023/05/18 01:29:50;;;;;;;8.68;5.03;;;;;;;;;;5082681;28;20234;-70
2023/05/18 01:32:18;;;;;;;8.73;4.93;;;;;;;;;;5082464;28;20250;-69
2023/05/18 01:34:44;;;;;;;7.10;4.55;;;;;;;;;;5082452;28;20249;-70
2023/05/18 01:37:10;;;;;;;8.32;4.93;;;;;;;;;;5082330;28;20197;-70
2023/05/18 01:39:36;;;;;;;6.30;4.80;;;;;;;;;;5082475;28;20208;-70
2023/05/18 01:42:06;;;;;;;8.55;4.30;;;;;;;;;;5082267;28;20196;-70
2023/05/18 01:44:39;;;;;;;5.32;4.82;;;;;;;;;;5082475;28;20196;-70
2023/05/18 01:47:08;;;;;;;5.63;4.90;;;;;;;;;;5082411;28;20503;-69
2023/05/18 01:49:36;;;;;;;6.95;4.88;;;;;;;;;;5082218;28;20201;-70
2023/05/18 01:52:04;;;;;;;4.80;4.40;;;;;;;;;;5082309;28;20212;-69
2023/05/18 01:54:30;;;;;;;4.97;4.47;;;;;;;;;;5082389;28;20196;-69
2023/05/18 01:56:58;;;;;;;5.13;4.63;;;;;;;;;;5082293;28;20196;-69
2023/05/18 01:59:24;;;;;;;7.07;4.93;;;;;;;;;;5082203;28;20207;-69
2023/05/18 02:01:52;;;;;;;7.03;4.70;;;;;;;;;;5081886;28;20234;-70
2023/05/18 02:04:18;;;;;;;6.40;5.15;;;;;;;;;;5081957;28;20204;-70
2023/05/18 02:06:45;;;;;;;5.65;4.90;;;;;;;;;;5082049;28;20203;-69
2023/05/18 02:09:11;;;;;;;11.10;4.90;;;;;;;;;;5081819;28;20216;-70
2023/05/18 02:11:37;;;;;;;5.60;4.60;;;;;;;;;;5081721;28;20204;-71
2023/05/18 02:14:03;;;;;;;7.78;4.85;;;;;;;;;;5081857;28;20208;-70
2023/05/18 02:16:30;;;;;;;6.43;4.65;;;;;;;;;;5082048;28;20196;-70
2023/05/18 02:18:59;;;;;;;5.22;4.63;;;;;;;;;;5082061;28;20201;-70
2023/05/18 02:21:25;;;;;;;6.45;5.13;;;;;;;;;;5081868;28;20203;-68
2023/05/18 02:23:51;;;;;;;7.10;4.55;;;;;;;;;;5081899;28;20393;-70
2023/05/18 02:26:17;;;;;;;8.63;4.65;;;;;;;;;;5082279;28;20620;-71
2023/05/18 02:28:44;;;;;;;6.05;4.68;;;;;;;;;;5081802;28;20216;-71
2023/05/18 02:31:11;;;;;;;6.93;4.95;;;;;;;;;;5081454;28;20212;-70
2023/05/18 02:33:39;;;;;;;5.03;4.50;;;;;;;;;;5084793;28;20496;-68
2023/05/18 02:36:08;;;;;;;5.53;5.03;;;;;;;;;;5086164;28;20228;-68
2023/05/18 02:38:36;;;;;;;5.80;5.13;;;;;;;;;;5085936;28;20275;-68
2023/05/18 02:41:02;;;;;;;6.15;4.80;;;;;;;;;;5085959;28;20219;-70
2023/05/18 02:43:28;;;;;;;7.07;4.88;;;;;;;;;;5085602;28;20310;-69
2023/05/18 02:45:55;;;;;;;6.40;4.85;;;;;;;;;;5085805;28;20249;-70
2023/05/18 02:48:21;;;;;;;7.40;4.75;;;;;;;;;;5085801;28;20585;-70
2023/05/18 02:50:48;;;;;;;6.32;4.50;;;;;;;;;;5085691;28;20235;-70
2023/05/18 02:53:15;;;;;;;7.20;4.25;;;;;;;;;;5085556;28;20249;-68
2023/05/18 02:55:42;;;;;;;5.32;4.65;;;;;;;;;;5085771;28;20292;-70
2023/05/18 02:58:08;;;;;;;5.55;5.00;;;;;;;;;;5085486;28;20192;-70
2023/05/18 03:00:34;;;;;;;5.85;4.53;;;;;;;;;;5085298;28;20196;-70
2023/05/18 03:03:01;;;;;;;6.28;5.10;;;;;;;;;;5085418;28;20378;-70
2023/05/18 03:05:28;;;;;;;7.50;4.82;;;;;;;;;;5085373;28;20333;-68
2023/05/18 03:07:54;;;;;;;6.95;4.70;;;;;;;;;;5085383;28;20524;-70
2023/05/18 03:10:21;;;;;;;6.20;5.28;;;;;;;;;;5085272;28;20196;-70
2023/05/18 03:12:48;;;;;;;7.43;5.20;;;;;;;;;;5085062;28;20212;-70
2023/05/18 03:15:15;;;;;;;6.18;4.50;;;;;;;;;;5085075;28;20258;-70
2023/05/18 03:17:41;;;;;;;7.20;5.45;;;;;;;;;;5085284;28;20496;-70
2023/05/18 03:20:09;;;;;;;6.13;4.68;;;;;;;;;;5085062;28;20196;-69
2023/05/18 03:22:35;;;;;;;6.55;4.88;;;;;;;;;;5084901;28;20200;-70
2023/05/18 03:25:01;;;;;;;8.32;5.13;;;;;;;;;;5085056;28;20203;-69
2023/05/18 03:27:29;;;;;;;5.32;4.82;;;;;;;;;;5085000;28;20248;-69
2023/05/18 03:29:56;;;;;;;5.13;4.68;;;;;;;;;;5084743;28;20225;-70
2023/05/18 03:32:23;;;;;;;6.82;5.07;;;;;;;;;;5084873;28;20201;-70
2023/05/18 03:34:49;;;;;;;5.50;4.97;;;;;;;;;;5084862;28;20210;-69
2023/05/18 03:37:16;;;;;;;5.28;4.85;;;;;;;;;;5085317;28;20242;-70
2023/05/18 03:39:42;;;;;;;7.32;4.80;;;;;;;;;;5084766;28;20246;-70
2023/05/18 03:42:08;;;;;;;6.63;5.65;;;;;;;;;;5084920;28;20196;-70
2023/05/18 03:44:36;;;;;;;5.55;5.07;;;;;;;;;;5083402;28;20199;-70
2023/05/18 03:47:02;;;;;;;6.55;5.63;;;;;;;;;;5084609;28;20242;-70
2023/05/18 03:49:29;;;;;;;10.63;6.18;;;;;;;;;;5084369;28;20230;-70
2023/05/18 03:51:56;;;;;;;6.43;5.60;;;;;;;;;;5084741;28;20267;-68
2023/05/18 03:54:22;;;;;;;8.60;6.13;;;;;;;;;;5084517;28;20196;-70
2023/05/18 03:56:49;;;;;;;6.38;5.28;;;;;;;;;;5084327;28;20228;-69
2023/05/18 03:59:15;;;;;;;8.00;5.43;;;;;;;;;;5084598;28;20268;-70
2023/05/18 04:01:43;;;;;;;6.43;5.82;;;;;;;;;;5084274;28;20249;-70
2023/05/18 04:04:16;;;;;;;6.22;5.63;;;;;;;;;;5084174;28;20196;-70
2023/05/18 04:06:45;;;;;;;6.00;5.50;;;;;;;;;;5084405;28;20385;-70
2023/05/18 04:09:13;;;;;;;8.05;6.28;;;;;;;;;;5084016;28;20216;-70
2023/05/18 04:11:40;;;;;;;6.13;5.40;;;;;;;;;;5084269;28;20200;-70
2023/05/18 04:14:07;;;;;;;6.53;5.75;;;;;;;;;;5084242;28;20232;-70
2023/05/18 04:16:33;;;;;;;6.95;5.38;;;;;;;;;;5084374;28;20204;-71
2023/05/18 04:19:02;;;;;;;7.30;5.65;;;;;;;;;;5084222;28;20200;-71
2023/05/18 04:21:34;;;;;;;7.68;6.10;;;;;;;;;;5083806;28;20219;-71
2023/05/18 04:24:01;;;;;;;6.88;5.43;;;;;;;;;;5084263;28;20184;-71
2023/05/18 04:26:28;;;;;;;6.93;5.93;;;;;;;;;;5084048;28;20200;-70
2023/05/18 04:28:58;;;;;;;6.07;5.47;;;;;;;;;;5083847;28;20459;-71
2023/05/18 04:31:25;;;;;;;8.95;5.93;;;;;;;;;;5083651;28;20208;-71
2023/05/18 04:33:51;;;;;;;7.05;6.00;;;;;;;;;;5083810;28;20196;-70
2023/05/18 04:36:19;;;;;;;7.07;6.15;;;;;;;;;;5083730;28;20196;-71
2023/05/18 04:38:45;;;;;;;7.25;6.60;;;;;;;;;;5084001;28;20196;-70
2023/05/18 04:41:11;;;;;;;8.20;6.63;;;;;;;;;;5083558;28;20196;-71
2023/05/18 04:43:38;;;;;;;7.03;6.07;;;;;;;;;;5083771;28;20306;-71
2023/05/18 04:46:05;;;;;;;7.68;6.43;;;;;;;;;;5083631;28;20200;-71
2023/05/18 04:48:32;;;;;;;8.80;7.00;;;;;;;;;;5083532;28;20283;-71
2023/05/18 04:50:58;;;;;;;7.07;6.45;;;;;;;;;;5083318;28;20423;-71
2023/05/18 04:53:27;;;;;;;7.18;6.30;;;;;;;;;;5083249;28;20196;-71
2023/05/18 04:55:53;;;;;;;8.32;6.90;;;;;;;;;;5083445;28;20296;-71
2023/05/18 04:58:19;;;;;;;10.40;6.78;;;;;;;;;;5083398;28;20263;-71
2023/05/18 05:00:45;;;;;;;8.85;6.22;;;;;;;;;;5083297;28;20200;-71
2023/05/18 05:03:12;;;;;;;10.13;6.45;;;;;;;;;;5083221;28;20196;-71
2023/05/18 05:05:38;;;;;;;10.52;6.00;;;;;;;;;;5083101;28;20204;-71
2023/05/18 05:08:05;;;;;;;9.80;6.43;;;;;;;;;;5083302;28;20203;-71
2023/05/18 05:10:33;;;;;;;7.80;6.32;;;;;;;;;;5083152;28;20223;-71
2023/05/18 05:12:59;;;;;;;8.05;6.78;;;;;;;;;;5082952;28;20363;-71
2023/05/18 05:15:25;;;;;;;11.55;7.35;;;;;;;;;;5082941;28;20242;-71
2023/05/18 05:17:52;;;;;;;10.70;7.22;;;;;;;;;;5082902;28;20209;-71
2023/05/18 05:20:18;;;;;;;11.40;7.10;;;;;;;;;;5082750;28;20192;-71
2023/05/18 05:22:44;;;;;;;9.23;6.85;;;;;;;;;;5082975;28;20375;-71
2023/05/18 05:25:11;;;;;;;7.05;6.28;;;;;;;;;;5083002;28;20335;-71
2023/05/18 05:27:38;;;;;;;8.82;6.85;;;;;;;;;;5082834;28;20216;-71
2023/05/18 05:30:06;;;;;;;10.98;7.95;;;;;;;;;;5082929;28;20215;-71
2023/05/18 05:32:32;;;;;;;10.68;7.88;;;;;;;;;;5082586;28;20394;-71
2023/05/18 05:34:58;;;;;;;10.25;7.60;;;;;;;;;;5082914;28;20200;-71
2023/05/18 05:37:24;;;;;;;10.05;7.43;;;;;;;;;;5082868;28;20197;-70
2023/05/18 05:39:51;;;;;;;11.30;8.15;;;;;;;;;;5082890;28;20196;-71
2023/05/18 05:42:17;;;;;;;9.40;7.07;;;;;;;;;;5082612;28;20208;-71
2023/05/18 05:44:45;;;;;;;8.13;7.15;;;;;;;;;;5082637;28;20386;-71
2023/05/18 05:47:11;;;;;;;7.93;6.95;;;;;;;;;;5082947;28;20223;-71
2023/05/18 05:49:37;;;;;;;9.40;7.03;;;;;;;;;;5082803;28;20266;-71
2023/05/18 05:52:04;;;;;;;10.10;7.40;;;;;;;;;;5082393;28;20228;-71
2023/05/18 05:54:30;;;;;;;9.13;7.70;;;;;;;;;;5082193;28;20196;-71
2023/05/18 05:56:56;;;;;;;8.50;6.50;;;;;;;;;;5082197;28;20200;-71
2023/05/18 05:59:22;;;;;;;13.32;7.25;;;;;;;;;;5081829;28;20201;-71
2023/05/18 06:01:50;;;;;;;12.63;6.07;;;;;;;;;;5081899;28;20196;-71
2023/05/18 06:04:16;;;;;;;9.80;5.95;;;;;;;;;;5082139;28;20196;-71
2023/05/18 06:06:42;;;;;;;7.75;5.47;;;;;;;;;;5082095;28;20356;-71
2023/05/18 06:09:09;;;;;;;12.27;4.15;;;;;;;;;;5081401;28;20220;-71
2023/05/18 06:11:35;;;;;;;8.63;3.63;;;;;;;;;;5082053;28;20196;-62
2023/05/18 06:14:01;;;;;;;8.32;3.75;;;;;;;;;;5081907;28;20212;-62
2023/05/18 06:16:28;;;;;;;9.00;3.90;;;;;;;;;;5082218;28;20287;-62
2023/05/18 06:18:55;;;;;;;12.05;3.92;;;;;;;;;;5082225;28;20207;-62
2023/05/18 06:21:22;;;;;;;6.75;4.03;;;;;;;;;;5082041;28;20196;-61
2023/05/18 06:23:48;;;;;;;6.55;3.45;;;;;;;;;;5082155;28;20204;-62
2023/05/18 06:26:14;;;;;;;9.48;3.25;;;;;;;;;;5082545;28;20297;-62
2023/05/18 06:28:41;;;;;;;9.00;3.55;;;;;;;;;;5083024;28;20262;-62
2023/05/18 06:34:11;;;;;;;10.13;3.30;;;;;;;;;;5082734;28;20163;-62
2023/05/18 06:36:37;;;;;;;7.43;3.20;;;;;;;;;;5082858;28;20387;-62
2023/05/18 06:39:04;;;;;;;5.88;3.25;;;;;;;;;;5082287;28;20220;-62
2023/05/18 06:41:30;;;;;;;6.13;2.78;;;;;;;;;;5081758;28;20388;-62
2023/05/18 06:43:59;;;;;;;6.47;3.15;;;;;;;;;;5082255;28;20437;-62
2023/05/18 06:46:26;;;;;;;5.70;2.88;;;;;;;;;;5082111;28;20197;-62
2023/05/18 06:48:52;;;;;;;7.57;2.88;;;;;;;;;;5082216;28;20196;-62
2023/05/18 06:51:20;;;;;;;7.32;3.25;;;;;;;;;;5081939;28;20197;-62
2023/05/18 06:53:46;;;;;;;9.65;3.10;;;;;;;;;;5082024;28;20393;-62
2023/05/18 06:56:12;;;;;;;7.53;3.17;;;;;;;;;;5081914;28;20205;-62
2023/05/18 06:58:39;;;;;;;6.82;3.28;;;;;;;;;;5082304;28;20386;-62
2023/05/18 07:01:05;;;;;;;8.20;2.97;;;;;;;;;;5082364;28;20528;-62
2023/05/18 07:03:32;;;;;;;6.85;3.53;;;;;;;;;;5081704;28;20200;-61
2023/05/18 07:05:58;;;;;;;5.55;3.03;;;;;;;;;;5082404;28;20201;-62
2023/05/18 07:08:26;;;;;;;12.23;3.40;;;;;;;;;;5082355;28;20208;-62
2023/05/18 07:10:52;;;;;;;8.48;3.00;;;;;;;;;;5082102;28;20227;-61
2023/05/18 07:13:18;;;;;;;7.70;3.75;;;;;;;;;;5081853;28;20365;-61
2023/05/18 07:15:45;;;;;;;7.85;4.22;;;;;;;;;;5082325;28;20201;-61
2023/05/18 07:18:12;;;;;;;7.05;3.45;;;;;;;;;;5082420;28;20204;-62
2023/05/18 07:20:38;;;;;;;7.68;2.90;;;;;;;;;;5085862;28;20238;-62
2023/05/18 07:23:04;;;;;;;11.23;3.05;;;;;;;;;;5085821;28;20203;-62
2023/05/18 07:25:32;;;;;;;10.20;3.42;;;;;;;;;;5085807;28;20206;-61
2023/05/18 07:27:58;;;;;;;8.13;3.03;;;;;;;;;;5085711;28;20242;-61
2023/05/18 07:30:25;;;;;;;5.75;3.15;;;;;;;;;;5085793;28;20221;-62
2023/05/18 07:32:51;;;;;;;8.13;3.40;;;;;;;;;;5085497;28;20288;-61
2023/05/18 07:35:19;;;;;;;7.50;3.45;;;;;;;;;;5085840;28;20265;-62
2023/05/18 07:37:45;;;;;;;7.38;3.63;;;;;;;;;;5085679;28;20203;-61
2023/05/18 07:40:11;;;;;;;10.68;4.15;;;;;;;;;;5085607;28;20200;-62
2023/05/18 07:42:40;;;;;;;8.82;3.90;;;;;;;;;;5085255;28;20197;-61
2023/05/18 07:45:07;;;;;;;8.43;3.40;;;;;;;;;;5085746;28;20219;-62
2023/05/18 07:47:33;;;;;;;4.68;3.33;;;;;;;;;;5086119;28;20200;-61
2023/05/18 07:50:00;;;;;;;4.80;2.97;;;;;;;;;;5085526;28;20221;-62
2023/05/18 07:52:26;;;;;;;7.60;3.58;;;;;;;;;;5085680;28;20254;-62
2023/05/18 07:54:52;;;;;;;12.50;3.55;;;;;;;;;;5086167;28;20552;-62
2023/05/18 07:57:19;;;;;;;12.10;3.85;;;;;;;;;;5085560;28;20395;-61
2023/05/18 07:59:47;;;;;;;8.68;3.85;;;;;;;;;;5086091;28;20436;-61
2023/05/18 08:02:15;;;;;;;5.72;3.28;;;;;;;;;;5085604;28;20365;-61
2023/05/18 08:04:41;;;;;;;9.15;3.65;;;;;;;;;;5085787;28;20203;-62
2023/05/18 08:07:07;;;;;;;8.13;3.67;;;;;;;;;;5085408;28;20205;-61
2023/05/18 08:09:34;;;;;;;5.13;3.08;;;;;;;;;;5084987;28;20446;-61
2023/05/18 08:12:00;;;;;;;6.28;3.67;;;;;;;;;;5085272;28;20396;-62
2023/05/18 08:14:26;;;;;;;7.20;3.60;;;;;;;;;;5085340;28;20211;-61
2023/05/18 08:16:54;;;;;;;9.77;3.47;;;;;;;;;;5085523;28;20196;-62
2023/05/18 08:19:20;;;;;;;7.22;3.67;;;;;;;;;;5085429;28;20387;-61
2023/05/18 08:21:47;;;;;;;9.15;3.75;;;;;;;;;;5085728;28;20369;-61
2023/05/18 08:24:13;;;;;;;16.50;3.78;;;;;;;;;;5085495;28;20196;-62
2023/05/18 08:26:40;;;;;;;7.60;3.50;;;;;;;;;;5085496;28;20519;-62
2023/05/18 08:29:08;;;;;;;12.18;3.47;;;;;;;;;;5084715;28;20239;-61
2023/05/18 08:31:35;;;;;;;5.63;3.17;;;;;;;;;;5084460;28;20375;-61
2023/05/18 08:34:02;;;;;;;10.88;3.40;;;;;;;;;;5085091;28;20316;-62
2023/05/18 08:36:29;;;;;;;7.43;3.15;;;;;;;;;;5085040;28;20193;-62
2023/05/18 08:38:55;;;;;;;9.77;3.15;;;;;;;;;;5084833;28;20207;-62
2023/05/18 08:41:25;;;;;;;6.13;3.03;;;;;;;;;;5084607;28;20201;-62
2023/05/18 08:43:53;;;;;;;9.70;3.60;;;;;;;;;;5084725;28;20210;-61
2023/05/18 08:46:21;;;;;;;6.53;3.30;;;;;;;;;;5084808;28;20441;-62
2023/05/18 08:48:49;;;;;;;11.35;3.05;;;;;;;;;;5084729;28;20200;-61
2023/05/18 08:51:19;;;;;;;5.85;3.33;;;;;;;;;;5084745;28;20220;-62
2023/05/18 08:53:46;;;;;;;6.88;3.10;;;;;;;;;;5084533;28;20203;-62
2023/05/18 08:56:12;;;;;;;10.75;3.25;;;;;;;;;;5084553;28;20200;-62
2023/05/18 08:58:42;;;;;;;6.85;3.13;;;;;;;;;;5084581;28;20200;-62
2023/05/18 09:01:09;;;;;;;7.95;2.97;;;;;;;;;;5084500;28;20192;-62
2023/05/18 09:03:36;;;;;;;6.47;3.05;;;;;;;;;;5084445;28;20208;-62
2023/05/18 09:06:03;;;;;;;5.70;3.10;;;;;;;;;;5084567;28;20196;-62
2023/05/18 09:08:31;;;;;;;6.28;2.88;;;;;;;;;;5084691;28;20204;-61
2023/05/18 09:10:58;;;;;;;7.20;3.13;;;;;;;;;;5084157;28;20408;-62
2023/05/18 09:13:25;;;;;;;9.48;3.50;;;;;;;;;;5083703;28;20557;-61
2023/05/18 09:15:52;;;;;;;10.40;4.78;;;;;;;;;;5084234;28;20203;-62
2023/05/18 09:18:18;;;;;;;14.07;6.80;;;;;;;;;;5083980;28;20508;-62
2023/05/18 09:20:44;;;;;;;9.25;3.33;;;;;;;;;;5084338;28;20200;-62
2023/05/18 09:23:11;;;;;;;8.18;3.25;;;;;;;;;;5083347;28;20200;-61
2023/05/18 09:25:42;;;;;;;7.13;3.72;;;;;;;;;;5083869;28;20205;-61
2023/05/18 09:28:08;;;;;;;9.27;3.28;;;;;;;;;;5083505;28;20224;-62
2023/05/18 09:30:39;;;;;;;7.25;2.85;;;;;;;;;;5084070;28;20216;-61
2023/05/18 09:33:05;;;;;;;6.85;2.63;;;;;;;;;;5083735;28;20196;-62
2023/05/18 09:35:32;;;;;;;8.02;3.10;;;;;;;;;;5083488;28;20196;-62
2023/05/18 09:38:02;;;;;;;4.32;2.50;;;;;;;;;;5083411;28;20204;-62
2023/05/18 09:40:29;;;;;;;12.52;2.90;;;;;;;;;;5083803;28;20199;-61
2023/05/18 09:42:57;;;;;;;7.75;2.97;;;;;;;;;;5082118;28;20234;-61
2023/05/18 09:45:24;;;;;;;5.35;3.00;;;;;;;;;;5083445;28;20208;-61
2023/05/18 09:47:51;;;;;;;9.00;2.90;;;;;;;;;;5083172;28;20424;-62
2023/05/18 09:50:18;;;;;;;8.00;3.10;;;;;;;;;;5083104;28;20216;-61
2023/05/18 09:52:46;;;;;;;9.90;3.83;;;;;;;;;;5082906;28;20242;-62
2023/05/18 09:55:12;;;;;;;13.40;3.88;;;;;;;;;;5083525;28;20427;-62
2023/05/18 09:57:40;;;;;;;4.68;2.72;;;;;;;;;;5083097;28;20204;-62
2023/05/18 10:00:10;;;;;;;7.90;2.90;;;;;;;;;;5083078;28;20193;-62
2023/05/18 10:02:37;;;;;;;8.30;2.78;;;;;;;;;;5082622;28;20287;-61
2023/05/18 10:05:04;;;;;;;5.60;2.90;;;;;;;;;;5083346;28;20527;-61
2023/05/18 10:07:30;;;;;;;6.20;2.90;;;;;;;;;;5083112;28;20452;-62
2023/05/18 10:10:01;;;;;;;9.48;3.17;;;;;;;;;;5083076;28;20219;-62
2023/05/18 10:12:27;;;;;;;11.70;3.28;;;;;;;;;;5082975;28;20208;-61
2023/05/18 10:14:53;;;;;;;7.10;2.90;;;;;;;;;;5082635;28;20226;-62
2023/05/18 10:17:24;;;;;;;6.32;2.83;;;;;;;;;;5082636;28;20556;-62
2023/05/18 10:19:51;;;;;;;9.38;3.13;;;;;;;;;;5082961;28;20539;-61
2023/05/18 10:22:19;;;;;;;8.25;3.10;;;;;;;;;;5082732;28;20328;-62
2023/05/18 10:24:49;;;;;;;8.95;3.70;;;;;;;;;;5083115;28;20234;-61
2023/05/18 10:27:17;;;;;;;6.28;2.65;;;;;;;;;;5082614;28;20217;-62
2023/05/18 10:29:45;;;;;;;5.00;2.80;;;;;;;;;;5082405;28;20197;-62
2023/05/18 10:32:12;;;;;;;4.45;2.95;;;;;;;;;;5082159;28;20539;-62
2023/05/18 10:34:40;;;;;;;6.78;2.88;;;;;;;;;;5082395;28;20197;-62
2023/05/18 10:37:06;;;;;;;7.07;2.38;;;;;;;;;;5082614;28;20208;-61
2023/05/18 10:39:35;;;;;;;7.80;2.92;;;;;;;;;;5082557;28;20264;-61
2023/05/18 10:42:02;;;;;;;6.50;2.92;;;;;;;;;;5082263;28;20563;-62
2023/05/18 10:44:28;;;;;;;6.45;2.78;;;;;;;;;;5082199;28;20203;-62
2023/05/18 10:46:55;;;;;;;6.25;2.83;;;;;;;;;;5082400;28;20201;-62
2023/05/18 10:49:24;;;;;;;7.05;2.85;;;;;;;;;;5082320;28;20200;-62
2023/05/18 10:51:52;;;;;;;8.02;3.10;;;;;;;;;;5081847;28;20239;-62
2023/05/18 10:54:19;;;;;;;8.65;2.67;;;;;;;;;;5084449;28;20196;-62
2023/05/18 10:56:48;;;;;;;9.20;3.65;;;;;;;;;;5086404;28;20267;-62
2023/05/18 10:59:17;;;;;;;9.02;2.90;;;;;;;;;;5086424;28;20239;-62
2023/05/18 11:01:43;;;;;;;5.97;2.63;;;;;;;;;;5086182;28;20306;-62
2023/05/18 11:04:10;;;;;;;4.78;2.38;;;;;;;;;;5086082;28;20197;-61
2023/05/18 11:06:36;;;;;;;5.40;2.35;;;;;;;;;;5085949;28;20200;-62
2023/05/18 11:09:04;;;;;;;8.15;2.75;;;;;;;;;;5085986;28;20433;-62
2023/05/18 11:11:50;;;;;;;6.53;2.60;;;;;;;;;;5085676;28;20531;-62
2023/05/18 11:14:24;;;;;;;7.38;2.80;;;;;;;;;;5086090;28;20204;-62
2023/05/18 11:16:50;;;;;;;7.20;2.70;;;;;;;;;;5085790;28;20195;-62
2023/05/18 11:19:19;;;;;;;10.75;3.10;;;;;;;;;;5086199;28;20200;-62
2023/05/18 11:21:52;;;;;;;7.53;2.38;;;;;;;;;;5085995;28;20223;-62
2023/05/18 11:24:20;;;;;;;7.30;2.40;;;;;;;;;;5086137;28;20211;-61
2023/05/18 11:26:49;;;;;;;7.20;2.90;;;;;;;;;;5085818;28;20202;-62
2023/05/18 11:29:19;;;;;;;5.70;2.70;;;;;;;;;;5085632;28;20222;-62
2023/05/18 11:31:46;;;;;;;5.40;2.85;;;;;;;;;;5085447;28;20223;-62
2023/05/18 11:34:31;;;;;;;5.18;2.53;;;;;;;;;;5085768;28;20200;-62
2023/05/18 11:36:57;;;;;;;5.97;2.67;;;;;;;;;;5085559;28;20239;-62
2023/05/18 11:39:25;;;;;;;5.72;2.60;;;;;;;;;;5085760;28;20196;-62
2023/05/18 11:41:58;;;;;;;7.35;2.70;;;;;;;;;;5085551;28;20203;-62
2023/05/18 11:44:27;;;;;;;5.82;2.40;;;;;;;;;;5085901;28;20192;-62
2023/05/18 11:46:55;;;;;;;10.98;2.70;;;;;;;;;;5085450;28;20242;-62
2023/05/18 11:49:23;;;;;;;7.50;2.30;;;;;;;;;;5085569;28;20204;-62
2023/05/18 11:51:56;;;;;;;4.95;2.47;;;;;;;;;;5085154;28;20595;-62
2023/05/18 11:54:25;;;;;;;5.63;2.45;;;;;;;;;;5085350;28;20197;-62
2023/05/18 11:56:52;;;;;;;5.93;2.35;;;;;;;;;;5085447;28;20302;-62
2023/05/18 11:59:29;;;;;;;5.53;2.30;;;;;;;;;;5085130;28;20242;-62
2023/05/18 12:01:56;;;;;;;8.90;2.60;;;;;;;;;;5085354;28;20190;-62
2023/05/18 12:04:23;;;;;;;6.20;2.72;;;;;;;;;;5085049;28;20686;-62
2023/05/18 12:06:50;;;;;;;5.53;2.35;;;;;;;;;;5084612;28;20200;-62
2023/05/18 12:09:17;;;;;;;6.88;2.50;;;;;;;;;;5085053;28;20196;-62
2023/05/18 12:11:44;;;;;;;5.18;2.10;;;;;;;;;;5084865;28;20278;-62
2023/05/18 12:14:11;;;;;;;4.43;2.53;;;;;;;;;;5084918;28;20211;-62
2023/05/18 12:16:38;;;;;;;3.00;2.35;;;;;;;;;;5085084;28;20204;-62
2023/05/18 12:19:06;;;;;;;7.65;2.17;;;;;;;;;;5084579;28;20204;-62
2023/05/18 12:21:34;;;;;;;5.03;2.42;;;;;;;;;;5084445;28;20204;-61
2023/05/18 12:24:01;;;;;;;8.55;2.78;;;;;;;;;;5084643;28;20196;-62
2023/05/18 12:26:28;;;;;;;9.82;2.72;;;;;;;;;;5084365;28;20530;-61
2023/05/18 12:28:56;;;;;;;7.60;2.35;;;;;;;;;;5084352;28;20338;-62
2023/05/18 12:31:22;;;;;;;5.03;2.35;;;;;;;;;;5083914;28;20258;-62
2023/05/18 12:33:49;;;;;;;6.13;2.58;;;;;;;;;;5084383;28;20206;-62
2023/05/18 12:36:16;;;;;;;5.68;2.38;;;;;;;;;;5084303;28;20250;-62
2023/05/18 12:38:42;;;;;;;5.93;2.40;;;;;;;;;;5084257;28;20250;-62
2023/05/18 12:41:09;;;;;;;4.95;2.20;;;;;;;;;;5084044;28;20458;-62
2023/05/18 12:43:36;;;;;;;4.32;2.30;;;;;;;;;;5084514;28;20267;-62
2023/05/18 12:46:04;;;;;;;7.38;2.55;;;;;;;;;;5084158;28;20553;-62
2023/05/18 12:48:35;;;;;;;7.57;2.47;;;;;;;;;;5084359;28;20196;-62
2023/05/18 12:51:01;;;;;;;5.60;2.00;;;;;;;;;;5083927;28;20212;-62
2023/05/18 12:53:39;;;;;;;6.38;2.50;;;;;;;;;;5083762;28;20320;-62
2023/05/18 12:56:08;;;;;;;5.43;2.40;;;;;;;;;;5083762;28;20196;-62
2023/05/18 12:58:34;;;;;;;7.28;2.53;;;;;;;;;;5084052;28;20196;-62
2023/05/18 13:01:08;;;;;;;5.72;1.80;;;;;;;;;;5084209;28;20193;-62
2023/05/18 13:03:34;;;;;;;5.10;2.45;;;;;;;;;;5083539;28;20196;-62
2023/05/18 13:06:05;;;;;;;6.18;2.55;;;;;;;;;;5083283;28;20480;-62
2023/05/18 13:08:31;;;;;;;9.05;2.17;;;;;;;;;;5083718;28;20196;-62
2023/05/18 13:11:00;;;;;;;5.68;2.00;;;;;;;;;;5083464;28;20197;-62
2023/05/18 13:13:26;;;;;;;3.10;2.15;;;;;;;;;;5083314;28;20200;-62
2023/05/18 13:15:53;;;;;;;5.15;1.77;;;;;;;;;;5083459;28;20196;-62
2023/05/18 13:18:20;;;;;;;6.72;2.47;;;;;;;;;;5083601;28;20461;-62
2023/05/18 13:20:49;;;;;;;7.47;2.28;;;;;;;;;;5083189;28;20208;-62
2023/05/18 13:23:16;;;;;;;4.68;1.88;;;;;;;;;;5083330;28;20196;-62
2023/05/18 13:25:43;;;;;;;3.03;2.05;;;;;;;;;;5083285;28;20203;-62
2023/05/18 13:28:10;;;;;;;5.07;1.85;;;;;;;;;;5083530;28;20217;-62
2023/05/18 13:30:36;;;;;;;4.95;2.13;;;;;;;;;;5083361;28;20196;-62
2023/05/18 13:33:03;;;;;;;7.15;2.40;;;;;;;;;;5082741;28;20220;-62
2023/05/18 13:35:30;;;;;;;3.17;1.90;;;;;;;;;;5083045;28;20211;-62
2023/05/18 13:37:57;;;;;;;8.82;2.25;;;;;;;;;;5083189;28;20200;-62
2023/05/18 13:40:24;;;;;;;5.88;2.58;;;;;;;;;;5082994;28;20200;-62
2023/05/18 13:42:50;;;;;;;6.60;2.20;;;;;;;;;;5082881;28;20192;-62
2023/05/18 13:45:17;;;;;;;5.25;2.30;;;;;;;;;;5083047;28;20223;-62
2023/05/18 13:47:44;;;;;;;5.30;2.38;;;;;;;;;;5082744;28;20204;-62
2023/05/18 13:50:10;;;;;;;4.40;2.17;;;;;;;;;;5082978;28;20224;-62
2023/05/18 13:52:38;;;;;;;9.23;2.50;;;;;;;;;;5082924;28;20226;-62
2023/05/18 13:55:06;;;;;;;6.78;2.22;;;;;;;;;;5082971;28;20200;-62
2023/05/18 13:57:32;;;;;;;7.15;2.00;;;;;;;;;;5082809;28;20212;-62
2023/05/18 14:00:02;;;;;;;8.50;2.15;;;;;;;;;;5082752;28;20196;-62
2023/05/18 14:02:29;;;;;;;4.97;2.30;;;;;;;;;;5082228;28;20227;-62
2023/05/18 14:04:55;;;;;;;8.63;2.58;;;;;;;;;;5083076;28;20391;-62
2023/05/18 14:07:23;;;;;;;4.72;2.45;;;;;;;;;;5082641;28;20365;-62
2023/05/18 14:09:50;;;;;;;5.78;2.53;;;;;;;;;;5082884;28;20224;-62
2023/05/18 14:12:17;;;;;;;6.43;2.50;;;;;;;;;;5082261;28;20477;-62
2023/05/18 14:14:43;;;;;;;5.85;2.00;;;;;;;;;;5082553;28;20212;-62
2023/05/18 14:17:09;;;;;;;5.68;2.17;;;;;;;;;;5082433;28;20206;-62
2023/05/18 14:19:35;;;;;;;4.70;1.70;;;;;;;;;;5082945;28;20197;-62
2023/05/18 14:22:02;;;;;;;7.82;2.25;;;;;;;;;;5083053;28;20185;-62
2023/05/18 14:24:28;;;;;;;5.38;2.13;;;;;;;;;;5082903;28;20204;-62
2023/05/18 14:26:56;;;;;;;7.38;2.55;;;;;;;;;;5082835;28;20200;-62
2023/05/18 14:29:22;;;;;;;6.63;2.33;;;;;;;;;;5082291;28;20513;-62
2023/05/18 14:31:48;;;;;;;4.55;1.77;;;;;;;;;;5082666;28;20539;-62
2023/05/18 14:34:14;;;;;;;7.32;2.13;;;;;;;;;;5083243;28;20208;-62
2023/05/18 14:36:41;;;;;;;9.77;2.38;;;;;;;;;;5082845;28;20196;-62
2023/05/18 14:39:07;;;;;;;5.78;2.13;;;;;;;;;;5082816;28;20408;-62
2023/05/18 14:41:33;;;;;;;5.35;2.22;;;;;;;;;;5082487;28;20232;-61
2023/05/18 14:44:02;;;;;;;6.90;2.47;;;;;;;;;;5082836;28;20196;-62